Hovedside
METAR-TAF:

METAR-TAF

Lufthavner :

Oljeplattform

Statfjord A, Norge

breddegrad: 61-15N, lengdegrad: 1-51E, høyde over havet: 10 m

Gjeldene værobservasjon

Denne rapporten ble laget for 39 minutter siden, klokken 13:50 UTC
Vind 35 kt fra Vest
Temperatur 6°C
Luftfuktighet 75%
Trykk 986 hPa
Sikt: 5000 m
lett regn

METAR: ENSF 051350Z AUTO 27035KT 5000NDV -RA BKN022/// 06/02 Q0986 W///S6

Tid: 15:29 (14:29 UTC)


TAF: fraværende

Værobservasjoner og værvarsel for over 4000 flyplasser (METAR- og TAF-rapporter).

Tilgjengelige stasjoner er representert av de røde og gule prikkene på kartet.

Hold musepekeren over prikken for å se navnet på stasjonen.

Klikk så for å se værobservasjoner og -varsler.

For å forandre kartet kan du klikke på den grønne knappen med svart kryss for å zoome inn, på den grønne knappen med strek for å zoome ut, eller på de grønne pilene for å se tilstøtende kart.


METAR-TAF: